Time;durP1;ratioP1;P1;durP2;ratioP2;P2;SDS_P1;SDS_P2;PMS_P1;PMS_P2;Temp;Humidity;BMP_temperature;BMP_pressure;BME280_temperature;BME280_humidity;BME280_pressure;Samples;Min_cycle;Max_cycle;Signal;HPM_P1;HPM_P2
2022/09/30 00:00:32;;;;;;;5.53;4.10;;;;;;;15.31;91.18;98840.33;1709687;83;21798;-80
2022/09/30 00:03:00;;;;;;;5.47;3.80;;;;;;;15.33;91.34;98838.42;1710005;83;21074;-80
2022/09/30 00:05:26;;;;;;;5.42;4.42;;;;;;;15.32;91.55;98837.58;1713864;82;21073;-80
2022/09/30 00:07:53;;;;;;;7.12;4.12;;;;;;;15.32;91.60;98838.91;1725928;83;21067;-80
2022/09/30 00:10:20;;;;;;;6.10;4.12;;;;;;;15.33;91.64;98835.77;1725756;83;21143;-79
2022/09/30 00:12:51;;;;;;;6.20;4.15;;;;;;;15.34;91.80;98830.86;1725826;83;21113;-80
2022/09/30 00:15:18;;;;;;;8.78;4.25;;;;;;;15.35;91.88;98840.52;1725965;83;21077;-80
2022/09/30 00:17:45;;;;;;;6.33;4.60;;;;;;;15.33;91.94;98839.75;1725942;83;21022;-81
2022/09/30 00:20:13;;;;;;;10.30;4.10;;;;;;;15.31;91.94;98839.00;1725604;83;21070;-79
2022/09/30 00:22:40;;;;;;;5.75;4.47;;;;;;;15.31;92.09;98841.17;1725800;83;21241;-80
2022/09/30 00:25:07;;;;;;;6.78;4.12;;;;;;;15.32;92.25;98842.04;1725440;83;21058;-79
2022/09/30 00:27:33;;;;;;;5.67;3.95;;;;;;;15.33;92.36;98842.39;1725899;83;21486;-79
2022/09/30 00:30:00;;;;;;;5.22;4.15;;;;;;;15.32;92.37;98844.20;1725942;83;21023;-80
2022/09/30 00:32:26;;;;;;;7.17;4.37;;;;;;;15.33;92.34;98847.24;1725973;83;20987;-80
2022/09/30 00:34:53;;;;;;;5.15;3.85;;;;;;;15.34;92.40;98842.78;1725950;83;21217;-80
2022/09/30 00:37:20;;;;;;;5.83;3.92;;;;;;;15.33;92.48;98841.94;1725609;83;21106;-80
2022/09/30 00:39:46;;;;;;;5.75;4.40;;;;;;;15.33;92.56;98851.67;1725987;83;21062;-80
2022/09/30 00:42:15;;;;;;;5.28;4.08;;;;;;;15.34;92.57;98858.69;1726079;83;21019;-79
2022/09/30 00:44:58;;;;;;;4.42;3.75;;;;;;;15.34;92.63;98870.12;1725819;83;21466;-79
2022/09/30 00:47:53;;;;;;;4.78;4.35;;;;;;;15.37;92.62;98864.63;1725176;83;21224;-79
2022/09/30 00:50:28;;;;;;;5.67;4.60;;;;;;;15.37;92.63;98871.75;1725738;83;21061;-80
2022/09/30 00:53:01;;;;;;;;;;;;;;;15.37;92.66;98874.40;1728495;83;21972;-80
2022/09/30 00:55:51;;;;;;;4.85;4.40;;;;;;;15.40;92.50;98867.58;1725566;83;20195;-80
2022/09/30 00:58:26;;;;;;;6.37;4.42;;;;;;;15.40;92.56;98872.87;1725834;83;21117;-80
2022/09/30 01:00:52;;;;;;;7.10;4.22;;;;;;;15.39;92.67;98872.48;1725736;83;21160;-80
2022/09/30 01:03:20;;;;;;;10.32;3.80;;;;;;;15.38;92.67;98862.83;1726045;83;21070;-80
2022/09/30 01:05:48;;;;;;;7.90;4.50;;;;;;;15.37;92.88;98863.31;1726188;82;21124;-81
2022/09/30 01:08:17;;;;;;;4.90;3.90;;;;;;;15.38;93.07;98862.83;1727917;83;20983;-80
2022/09/30 01:10:44;;;;;;;8.45;4.20;;;;;;;15.37;93.15;98858.49;1727662;82;21493;-80
2022/09/30 01:13:10;;;;;;;5.75;3.70;;;;;;;15.38;93.26;98862.83;1728138;83;21112;-79
2022/09/30 01:15:52;;;;;;;5.55;3.77;;;;;;;15.36;93.44;98870.88;1727543;83;21117;-79
2022/09/30 01:18:33;;;;;;;4.97;3.90;;;;;;;15.36;93.50;98870.03;1727693;83;21077;-80
2022/09/30 01:21:14;;;;;;;5.80;4.67;;;;;;;15.35;93.66;98873.66;1727650;82;21063;-79
2022/09/30 01:24:08;;;;;;;7.78;4.40;;;;;;;15.32;93.96;98873.84;1696426;83;21673;-80
2022/09/30 01:27:08;;;;;;;9.08;4.00;;;;;;;15.28;94.28;98876.30;1727667;83;21184;-79
2022/09/30 01:29:59;;;;;;;6.55;4.30;;;;;;;15.27;94.37;98876.78;1727204;83;21158;-80
2022/09/30 01:32:52;;;;;;;6.70;3.80;;;;;;;15.26;94.35;98883.02;1727905;83;21002;-80
2022/09/30 01:36:10;;;;;;;6.10;4.17;;;;;;;15.24;94.43;98880.47;1727830;83;21073;-80
2022/09/30 01:38:57;;;;;;;9.80;3.92;;;;;;;15.27;94.27;98882.57;1727727;83;20979;-80
2022/09/30 01:41:58;;;;;;;4.53;3.90;;;;;;;15.27;94.17;98887.87;1689287;83;22253;-80
2022/09/30 01:44:30;;;;;;;9.78;4.17;;;;;;;15.22;94.25;98883.70;1727965;83;20999;-79
2022/09/30 01:47:01;;;;;;;5.20;3.85;;;;;;;15.19;94.29;98889.67;1727982;83;21619;-79
2022/09/30 01:49:53;;;;;;;6.47;3.80;;;;;;;15.18;94.22;98894.13;1727665;83;21113;-80
2022/09/30 01:52:27;;;;;;;4.67;4.08;;;;;;;15.19;94.21;98893.16;1727674;83;21580;-80
2022/09/30 01:55:19;;;;;;;7.70;4.45;;;;;;;15.17;94.08;98888.44;1727586;83;21130;-80
2022/09/30 01:58:13;;;;;;;4.33;3.92;;;;;;;15.13;94.20;98893.57;1727713;83;21169;-81
2022/09/30 02:00:41;;;;;;;4.65;4.22;;;;;;;15.12;94.37;98893.18;1727071;82;21018;-79
2022/09/30 02:03:13;;;;;;;8.10;4.72;;;;;;;15.08;94.43;98886.39;1727848;83;21576;-81
2022/09/30 02:05:47;;;;;;;5.17;4.40;;;;;;;15.04;94.52;98879.08;1726352;82;21144;-80
2022/09/30 02:08:22;;;;;;;6.17;4.60;;;;;;;15.02;94.49;98885.44;1709227;83;22138;-80
2022/09/30 02:10:55;;;;;;;5.42;3.98;;;;;;;15.00;94.66;98892.16;1709292;83;20992;-80
2022/09/30 02:13:42;;;;;;;4.72;4.17;;;;;;;14.99;94.65;98882.98;1709827;83;21069;-79
2022/09/30 02:16:12;;;;;;;8.30;4.72;;;;;;;14.97;94.67;98884.88;1709607;83;21911;-78
2022/09/30 02:18:43;;;;;;;6.65;4.45;;;;;;;14.96;94.85;98889.79;1709764;83;21641;-81
2022/09/30 02:21:10;;;;;;;6.60;4.33;;;;;;;14.95;94.90;98892.08;1709680;83;21853;-80
2022/09/30 02:23:40;;;;;;;6.47;4.25;;;;;;;14.96;94.92;98893.77;1709468;83;21518;-80
2022/09/30 02:26:19;;;;;;;9.25;4.28;;;;;;;14.94;94.78;98895.66;1709640;83;21114;-81
2022/09/30 02:28:53;;;;;;;5.80;4.75;;;;;;;14.91;94.52;98896.72;1709341;83;21144;-80
2022/09/30 02:31:20;;;;;;;7.70;4.25;;;;;;;14.89;94.44;98892.45;1709876;83;21008;-80
2022/09/30 02:33:53;;;;;;;5.03;4.42;;;;;;;14.89;94.37;98893.30;1709695;83;21219;-80
2022/09/30 02:36:25;;;;;;;5.12;4.60;;;;;;;14.85;94.22;98895.29;1709798;83;21015;-80
2022/09/30 02:39:12;;;;;;;11.50;4.78;;;;;;;14.81;93.38;98896.44;1709744;83;21059;-81
2022/09/30 02:41:44;;;;;;;5.25;4.58;;;;;;;14.75;93.26;98891.52;1709961;83;21585;-80
2022/09/30 02:44:11;;;;;;;6.70;4.60;;;;;;;14.73;93.26;98894.73;1709856;83;21680;-80
2022/09/30 02:46:52;;;;;;;9.35;5.10;;;;;;;14.73;93.14;98901.36;1709751;83;21490;-79
2022/09/30 02:49:55;;;;;;;13.38;5.08;;;;;;;14.70;92.74;98896.24;1709578;83;21066;-81
2022/09/30 02:52:46;;;;;;;9.50;4.85;;;;;;;14.62;91.56;98891.41;1710101;83;21664;-80
2022/09/30 02:55:33;;;;;;;7.40;4.30;;;;;;;14.56;90.88;98896.19;1709756;83;21034;-80
2022/09/30 02:58:20;;;;;;;11.93;5.20;;;;;;;14.51;90.24;98895.17;1710281;83;21035;-81
2022/09/30 03:00:48;;;;;;;10.38;4.67;;;;;;;14.45;90.97;98893.72;1709703;83;21492;-79
2022/09/30 03:03:26;;;;;;;11.15;5.25;;;;;;;14.40;90.69;98900.25;1689515;83;21565;-80
2022/09/30 03:05:53;;;;;;;9.08;5.08;;;;;;;14.34;90.64;98901.48;1710328;82;21648;-80
2022/09/30 03:08:19;;;;;;;9.03;4.87;;;;;;;14.33;91.99;98892.31;1727801;83;21682;-80
2022/09/30 03:10:49;;;;;;;10.63;5.15;;;;;;;14.33;92.20;98897.60;1727656;83;21473;-80
2022/09/30 03:13:47;;;;;;;8.93;5.67;;;;;;;14.29;91.68;98899.59;1728006;83;21133;-81
2022/09/30 03:16:34;;;;;;;5.72;4.85;;;;;;;14.26;91.54;98901.09;1727730;83;21102;-80
2022/09/30 03:19:37;;;;;;;10.03;6.05;;;;;;;14.26;92.64;98903.25;1727658;83;21054;-80
2022/09/30 03:22:36;;;;;;;8.85;5.75;;;;;;;14.31;94.91;98905.63;1727919;83;21565;-80
2022/09/30 03:25:36;;;;;;;8.70;6.28;;;;;;;14.32;96.13;98908.64;1728002;83;21018;-79
2022/09/30 03:28:29;;;;;;;12.93;6.05;;;;;;;14.34;97.46;98909.88;1686480;85;21871;-80
2022/09/30 03:31:25;;;;;;;9.43;6.85;;;;;;;14.37;98.44;98918.47;1686079;85;21510;-81
2022/09/30 03:33:59;;;;;;;14.07;7.15;;;;;;;14.39;100.00;98917.06;1688799;84;21694;-81
2022/09/30 03:36:40;;;;;;;10.82;7.10;;;;;;;14.39;100.00;98921.91;1728125;83;21058;-80
2022/09/30 03:39:27;;;;;;;10.40;7.37;;;;;;;14.40;100.00;98916.13;1728010;83;21022;-82
2022/09/30 03:42:28;;;;;;;11.12;7.58;;;;;;;14.41;100.00;98920.02;1727965;83;22194;-80
2022/09/30 03:45:12;;;;;;;15.20;7.65;;;;;;;14.43;100.00;98932.67;1727613;83;22014;-81
2022/09/30 03:47:44;;;;;;;16.93;8.68;;;;;;;14.44;100.00;98927.77;1727835;83;21560;-81
2022/09/30 03:50:14;;;;;;;12.55;7.58;;;;;;;14.45;100.00;98926.81;1727706;83;21628;-82
2022/09/30 03:52:40;;;;;;;10.00;7.47;;;;;;;14.46;100.00;98928.52;1727967;83;21030;-81
2022/09/30 03:55:10;;;;;;;17.02;7.25;;;;;;;14.47;100.00;98934.66;1727796;83;21237;-80
2022/09/30 03:57:36;;;;;;;13.75;7.55;;;;;;;14.49;100.00;98938.94;1727911;83;21085;-78
2022/09/30 04:00:04;;;;;;;17.77;7.47;;;;;;;14.49;100.00;98934.97;1727765;83;21599;-80
2022/09/30 04:02:31;;;;;;;13.08;8.15;;;;;;;14.48;100.00;98940.34;1728157;83;21086;-80
2022/09/30 04:04:58;;;;;;;23.98;8.28;;;;;;;14.46;100.00;98943.56;1727772;82;21023;-81
2022/09/30 04:07:25;;;;;;;13.13;6.83;;;;;;;14.45;100.00;98951.11;1718065;82;21554;-79
2022/09/30 04:09:51;;;;;;;15.30;7.03;;;;;;;14.41;100.00;98963.69;1709992;83;21538;-82
2022/09/30 04:12:18;;;;;;;10.68;7.30;;;;;;;14.39;100.00;98963.38;1709987;83;20988;-79
2022/09/30 04:14:44;;;;;;;14.47;6.97;;;;;;;14.35;100.00;98967.16;1710083;83;21042;-82
2022/09/30 04:17:11;;;;;;;7.53;6.58;;;;;;;14.33;100.00;98973.86;1709807;83;21058;-81
2022/09/30 04:19:39;;;;;;;14.73;7.03;;;;;;;14.31;100.00;98979.73;1709636;83;21577;-80
2022/09/30 04:22:06;;;;;;;12.50;6.55;;;;;;;14.29;100.00;98975.84;1709961;83;21699;-82
2022/09/30 04:24:33;;;;;;;13.13;6.75;;;;;;;14.29;100.00;98975.00;1709645;83;21067;-80
2022/09/30 04:26:59;;;;;;;17.07;6.37;;;;;;;14.27;100.00;98978.19;1710255;83;21559;-81
2022/09/30 04:29:26;;;;;;;10.58;6.90;;;;;;;14.27;100.00;98984.80;1709642;83;21558;-81
2022/09/30 04:31:52;;;;;;;18.23;7.10;;;;;;;14.24;100.00;98980.55;1690652;83;21795;-80
2022/09/30 04:34:19;;;;;;;10.90;6.92;;;;;;;14.23;100.00;98983.28;1709767;83;21012;-82
2022/09/30 04:36:46;;;;;;;8.65;6.28;;;;;;;14.22;100.00;98985.54;1709991;83;21003;-83
2022/09/30 04:39:13;;;;;;;13.45;6.58;;;;;;;14.19;100.00;98981.74;1709939;83;21134;-82
2022/09/30 04:41:40;;;;;;;7.15;6.20;;;;;;;14.18;100.00;98979.58;1709979;83;21016;-81
2022/09/30 04:44:08;;;;;;;7.08;6.35;;;;;;;14.23;100.00;98983.28;1709690;83;21891;-79
2022/09/30 04:46:35;;;;;;;9.98;6.80;;;;;;;14.27;100.00;98979.51;1709882;83;20968;-83
2022/09/30 04:49:04;;;;;;;20.68;7.50;;;;;;;14.31;100.00;98978.41;1709872;83;21003;-80
2022/09/30 04:51:31;;;;;;;8.60;6.55;;;;;;;14.34;100.00;98978.67;1709620;83;21075;-81
2022/09/30 04:53:59;;;;;;;11.33;7.15;;;;;;;14.33;100.00;98992.39;1709768;83;21512;-79
2022/09/30 04:56:25;;;;;;;15.53;7.15;;;;;;;14.35;100.00;98998.44;1709745;83;21573;-82
2022/09/30 04:58:53;;;;;;;19.92;7.65;;;;;;;14.35;100.00;98998.44;1709663;83;21117;-80
2022/09/30 05:01:20;;;;;;;25.92;7.67;;;;;;;14.36;100.00;98998.83;1709580;83;21656;-80
2022/09/30 05:03:47;;;;;;;9.68;7.25;;;;;;;14.35;100.00;98998.92;1709835;83;21028;-82
2022/09/30 05:06:14;;;;;;;8.78;7.25;;;;;;;14.35;100.00;99001.09;1709866;83;21102;-80
2022/09/30 05:08:44;;;;;;;12.25;7.05;;;;;;;14.40;100.00;99000.34;1724716;82;21198;-81
2022/09/30 05:11:16;;;;;;;18.55;8.50;;;;;;;14.45;100.00;98998.27;1725621;82;21984;-83
2022/09/30 05:13:43;;;;;;;14.78;7.45;;;;;;;14.52;100.00;99003.22;1725567;83;21571;-82
2022/09/30 05:16:10;;;;;;;7.90;7.10;;;;;;;14.57;100.00;99006.45;1725673;83;21928;-82
2022/09/30 05:18:38;;;;;;;9.93;7.42;;;;;;;14.59;100.00;99006.78;1725600;82;21544;-80
2022/09/30 05:21:05;;;;;;;10.30;7.40;;;;;;;14.60;100.00;99002.33;1725897;83;21117;-82
2022/09/30 05:23:31;;;;;;;29.70;8.28;;;;;;;14.63;100.00;98999.50;1725633;83;21034;-80
2022/09/30 05:25:59;;;;;;;8.68;7.80;;;;;;;14.67;100.00;99015.58;1725685;83;21048;-81
2022/09/30 05:28:25;;;;;;;16.15;7.70;;;;;;;14.67;100.00;99015.58;1725781;83;21082;-81
2022/09/30 05:30:58;;;;;;;9.58;6.87;;;;;;;14.70;100.00;99016.72;1725477;83;21062;-79
2022/09/30 05:33:25;;;;;;;14.35;7.67;;;;;;;14.74;100.00;99026.17;1725767;83;21657;-83
2022/09/30 05:35:51;;;;;;;8.83;7.75;;;;;;;14.74;100.00;99030.14;1725341;83;21061;-80
2022/09/30 05:38:18;;;;;;;9.20;7.28;;;;;;;14.76;100.00;99027.41;1725830;82;20975;-81
2022/09/30 05:40:44;;;;;;;19.25;8.20;;;;;;;14.79;100.00;99033.41;1725714;82;21137;-82
2022/09/30 05:43:11;;;;;;;13.43;8.45;;;;;;;14.83;100.00;99035.39;1725629;82;21003;-80
2022/09/30 05:45:38;;;;;;;10.30;8.13;;;;;;;14.86;100.00;99042.67;1725713;83;21183;-82
2022/09/30 05:48:06;;;;;;;11.75;8.05;;;;;;;14.86;100.00;99050.63;1725496;83;21031;-81
2022/09/30 05:50:34;;;;;;;12.82;7.72;;;;;;;14.86;100.00;99047.97;1725641;83;21002;-81
2022/09/30 05:53:00;;;;;;;14.47;9.13;;;;;;;14.85;100.00;99048.91;1725745;83;21105;-82
2022/09/30 05:55:28;;;;;;;9.63;7.78;;;;;;;14.84;100.00;99049.87;1725689;83;21007;-82
2022/09/30 05:57:55;;;;;;;10.13;8.53;;;;;;;14.83;100.00;99048.15;1702132;83;21321;-82
2022/09/30 06:00:22;;;;;;;13.10;8.28;;;;;;;14.79;100.00;99055.91;1725566;83;21089;-81
2022/09/30 06:02:51;;;;;;;13.48;9.03;;;;;;;14.72;100.00;99057.20;1725675;83;21062;-83
2022/09/30 06:05:18;;;;;;;9.53;8.43;;;;;;;14.68;100.00;99054.36;1725992;83;21101;-83
2022/09/30 06:07:45;;;;;;;12.78;8.33;;;;;;;14.67;100.00;99056.62;1718828;82;21695;-81
2022/09/30 06:10:13;;;;;;;13.53;9.00;;;;;;;14.66;100.00;99068.17;1709671;83;21413;-83
2022/09/30 06:12:40;;;;;;;12.47;9.30;;;;;;;14.69;100.00;99069.29;1709773;83;21024;-81
2022/09/30 06:15:08;;;;;;;10.68;8.63;;;;;;;14.69;100.00;99078.55;1709673;83;21059;-80
2022/09/30 06:17:36;;;;;;;12.55;9.65;;;;;;;14.70;100.00;99077.63;1709996;83;21109;-82
2022/09/30 06:20:04;;;;;;;11.35;9.93;;;;;;;14.68;100.00;99084.81;1709978;83;21070;-83
2022/09/30 06:22:34;;;;;;;12.37;9.15;;;;;;;14.66;100.00;99080.09;1709870;83;21135;-83
2022/09/30 06:25:04;;;;;;;10.72;9.58;;;;;;;14.65;100.00;99077.05;1709832;83;21043;-81
2022/09/30 06:27:36;;;;;;;12.45;10.25;;;;;;;14.70;100.00;99073.66;1709816;83;21002;-82
2022/09/30 06:30:05;;;;;;;15.65;10.08;;;;;;;14.71;100.00;99075.38;1709639;83;21560;-80
2022/09/30 06:32:32;;;;;;;15.83;11.00;;;;;;;14.71;100.00;99076.70;1709914;83;21074;-82
2022/09/30 06:34:59;;;;;;;13.35;10.88;;;;;;;14.70;100.00;99073.66;1709885;83;21245;-81
2022/09/30 06:37:25;;;;;;;14.65;10.72;;;;;;;14.70;100.00;99076.30;1709737;83;21082;-79
2022/09/30 06:39:52;;;;;;;13.55;10.43;;;;;;;14.75;100.00;99082.18;1709673;83;21173;-81
2022/09/30 06:42:19;;;;;;;15.80;11.15;;;;;;;14.80;100.00;99088.54;1709809;83;21114;-81
2022/09/30 06:44:45;;;;;;;16.02;10.45;;;;;;;14.84;100.00;99092.25;1709648;83;21126;-80
2022/09/30 06:47:13;;;;;;;14.13;11.38;;;;;;;14.92;100.00;99082.98;1710049;83;21102;-81
2022/09/30 06:49:41;;;;;;;12.82;10.98;;;;;;;14.98;100.00;99081.30;1710181;83;21011;-81
2022/09/30 06:52:13;;;;;;;14.90;11.03;;;;;;;15.01;100.00;99082.42;1709970;83;21450;-81
2022/09/30 06:54:40;;;;;;;17.07;11.22;;;;;;;15.04;100.00;99088.38;1710074;83;21106;-81
2022/09/30 06:57:08;;;;;;;13.95;11.63;;;;;;;15.07;100.00;99088.69;1709626;83;21058;-80
2022/09/30 06:59:35;;;;;;;17.02;13.10;;;;;;;15.11;100.00;99090.19;1710148;83;21789;-81
2022/09/30 07:02:01;;;;;;;16.32;12.30;;;;;;;15.14;100.00;99093.14;1709593;83;20969;-79
2022/09/30 07:04:28;;;;;;;18.05;12.98;;;;;;;15.15;100.00;99090.41;1710520;83;21162;-81
2022/09/30 07:06:55;;;;;;;14.87;11.88;;;;;;;15.16;100.00;99094.77;1709539;83;21625;-82
2022/09/30 07:09:22;;;;;;;18.35;12.15;;;;;;;15.19;100.00;99097.21;1725147;82;21096;-81
2022/09/30 07:11:49;;;;;;;20.25;11.45;;;;;;;15.24;100.00;99097.78;1725551;83;21887;-81
2022/09/30 07:14:16;;;;;;;17.90;13.18;;;;;;;15.32;100.00;99103.96;1725821;83;21635;-81
2022/09/30 07:16:44;;;;;;;18.35;12.30;;;;;;;15.39;100.00;99100.47;1726046;82;21632;-80
2022/09/30 07:19:11;;;;;;;17.73;12.70;;;;;;;15.42;100.00;99106.91;1725735;83;22235;-80
2022/09/30 07:21:38;;;;;;;15.45;11.65;;;;;;;15.47;100.00;99106.16;1725719;83;21039;-79
2022/09/30 07:24:04;;;;;;;14.65;11.65;;;;;;;15.56;100.00;99106.89;1725633;83;21240;-80
2022/09/30 07:26:31;;;;;;;13.72;11.78;;;;;;;15.70;100.00;99106.52;1725637;82;21039;-80
2022/09/30 07:28:58;;;;;;;14.80;11.63;;;;;;;15.83;100.00;99120.75;1725821;83;21126;-79
2022/09/30 07:31:25;;;;;;;16.77;11.12;;;;;;;15.95;100.00;99122.65;1725676;83;21070;-82
2022/09/30 07:33:51;;;;;;;13.60;11.18;;;;;;;16.07;100.00;99122.34;1725866;83;21073;-81
2022/09/30 07:36:22;;;;;;;14.58;12.37;;;;;;;16.18;100.00;99122.13;1725782;83;21230;-81
2022/09/30 07:38:49;;;;;;;24.55;13.30;;;;;;;16.24;100.00;99119.06;1725850;83;21652;-80
2022/09/30 07:41:20;;;;;;;21.23;13.22;;;;;;;16.25;100.00;99126.93;1725790;83;21014;-79
2022/09/30 07:43:47;;;;;;;16.25;12.50;;;;;;;16.23;100.00;99126.19;1725938;82;21089;-80
2022/09/30 07:46:19;;;;;;;19.00;12.93;;;;;;;16.17;100.00;99129.22;1725716;83;21052;-80
2022/09/30 07:48:49;;;;;;;15.90;13.65;;;;;;;16.15;100.00;99123.16;1725770;83;21679;-80
2022/09/30 07:51:22;;;;;;;18.52;14.70;;;;;;;16.18;100.00;99133.59;1725639;83;21054;-79
2022/09/30 07:53:55;;;;;;;17.87;12.68;;;;;;;16.22;100.00;99135.57;1726163;83;21631;-78
2022/09/30 07:56:22;;;;;;;18.10;11.60;;;;;;;16.31;100.00;99133.19;1725891;83;21067;-79
2022/09/30 07:58:54;;;;;;;14.73;12.45;;;;;;;16.43;100.00;99137.33;1726054;83;21148;-78
2022/09/30 08:01:21;;;;;;;17.60;13.25;;;;;;;16.53;100.00;99141.09;1703883;83;21144;-81
2022/09/30 08:03:52;;;;;;;22.15;13.35;;;;;;;16.62;100.00;99142.29;1725657;82;21419;-81
2022/09/30 08:06:18;;;;;;;18.92;13.72;;;;;;;16.70;100.00;99145.30;1703606;83;21074;-80
2022/09/30 08:08:45;;;;;;;20.30;14.15;;;;;;;16.72;100.00;99153.52;1716418;82;21062;-79
2022/09/30 08:11:13;;;;;;;19.17;13.68;;;;;;;16.74;100.00;99157.89;1709962;83;21075;-81
2022/09/30 08:13:40;;;;;;;18.82;13.90;;;;;;;16.75;100.00;99156.95;1709680;83;21201;-79
2022/09/30 08:16:06;;;;;;;15.38;12.47;;;;;;;16.80;100.00;99156.17;1709996;83;21618;-81
2022/09/30 08:18:33;;;;;;;19.55;12.82;;;;;;;16.83;100.00;99155.97;1709832;83;20999;-79
2022/09/30 08:21:05;;;;;;;15.50;12.05;;;;;;;16.87;100.00;99160.99;1709743;83;21055;-80
2022/09/30 08:23:34;;;;;;;19.10;13.45;;;;;;;16.87;100.00;99153.51;1709785;83;21146;-81
2022/09/30 08:26:08;;;;;;;15.20;10.65;;;;;;;16.91;100.00;99164.30;1709689;83;21102;-79
2022/09/30 08:28:36;;;;;;;15.60;12.23;;;;;;;16.94;100.00;99165.42;1709684;83;21069;-79
2022/09/30 08:31:06;;;;;;;16.82;12.53;;;;;;;17.02;99.90;99168.91;1709744;83;21581;-80
2022/09/30 08:33:32;;;;;;;15.80;11.73;;;;;;;17.11;99.54;99168.77;1710025;83;21071;-80
2022/09/30 08:36:08;;;;;;;15.08;12.15;;;;;;;17.21;99.12;99165.86;1709736;83;21035;-79
2022/09/30 08:38:34;;;;;;;20.20;13.30;;;;;;;17.29;98.75;99166.19;1710048;83;21112;-79
2022/09/30 08:41:40;;;;;;;17.57;11.85;;;;;;;17.40;98.35;99172.97;1709650;83;21070;-79
2022/09/30 08:44:21;;;;;;;18.35;12.73;;;;;;;17.51;97.63;99170.05;1709945;83;21073;-79
2022/09/30 08:46:53;;;;;;;14.28;12.78;;;;;;;17.63;97.11;99173.18;1709493;83;21058;-79
2022/09/30 08:50:06;;;;;;;18.20;12.60;;;;;;;17.71;95.49;99177.49;1709860;83;21074;-79
2022/09/30 08:52:39;;;;;;;16.67;12.28;;;;;;;17.71;94.74;99176.16;1709782;83;21129;-80
2022/09/30 08:55:06;;;;;;;18.75;11.83;;;;;;;17.79;94.61;99168.50;1709691;83;21050;-81
2022/09/30 08:57:39;;;;;;;13.95;12.25;;;;;;;17.85;93.73;99167.20;1709809;83;21181;-80
2022/09/30 09:00:12;;;;;;;16.07;12.55;;;;;;;17.85;93.04;99167.70;1689989;83;21078;-79
2022/09/30 09:02:59;;;;;;;16.37;12.60;;;;;;;17.90;93.32;99170.42;1690543;83;21106;-80
2022/09/30 09:06:16;;;;;;;23.50;12.60;;;;;;;18.04;92.99;99173.92;1709606;83;21156;-80
2022/09/30 09:09:10;;;;;;;16.32;11.75;;;;;;;18.19;91.73;99176.85;1709745;82;21047;-81
2022/09/30 09:12:00;;;;;;;17.10;12.10;;;;;;;18.29;91.57;99182.34;1709900;83;21126;-81
2022/09/30 09:14:44;;;;;;;14.40;11.40;;;;;;;18.46;91.08;99184.66;1709747;83;21090;-81
2022/09/30 09:17:18;;;;;;;13.28;11.88;;;;;;;18.63;90.87;99180.76;1709862;83;21035;-81
2022/09/30 09:20:04;;;;;;;15.75;12.23;;;;;;;18.84;90.17;99178.34;1709998;83;21136;-80
2022/09/30 09:22:31;;;;;;;15.40;11.08;;;;;;;19.01;88.39;99188.23;1709797;83;21270;-80
2022/09/30 09:24:57;;;;;;;16.05;12.30;;;;;;;19.12;88.05;99190.95;1709670;83;21051;-79
2022/09/30 09:27:36;;;;;;;17.80;12.85;;;;;;;19.19;86.58;99186.84;1709684;83;20999;-80
2022/09/30 09:30:11;;;;;;;19.15;12.60;;;;;;;19.21;86.09;99188.91;1691636;83;21034;-80
2022/09/30 09:32:37;;;;;;;17.32;12.68;;;;;;;19.24;86.24;99199.84;1709969;83;21152;-80
2022/09/30 09:35:29;;;;;;;17.32;10.98;;;;;;;19.26;85.58;99193.41;1709572;83;21017;-79
2022/09/30 09:38:24;;;;;;;13.60;10.90;;;;;;;19.36;86.02;99195.39;1709460;83;21007;-81
2022/09/30 09:41:20;;;;;;;28.38;12.68;;;;;;;19.55;86.17;99182.81;1710118;83;21644;-81
2022/09/30 09:43:59;;;;;;;22.48;13.43;;;;;;;19.71;84.67;99190.50;1709758;83;20999;-79
2022/09/30 09:46:54;;;;;;;18.00;11.97;;;;;;;19.78;83.21;99186.41;1709586;83;21094;-80
2022/09/30 09:49:31;;;;;;;18.98;11.68;;;;;;;19.83;82.74;99188.23;1709781;83;21007;-79
2022/09/30 09:52:15;;;;;;;15.13;10.95;;;;;;;19.94;82.38;99185.58;1709851;83;21129;-78
2022/09/30 09:54:44;;;;;;;13.67;11.00;;;;;;;20.10;82.12;99179.02;1710147;83;21363;-78
2022/09/30 09:57:13;;;;;;;22.77;11.75;;;;;;;20.26;81.06;99182.62;1710096;83;21625;-79
2022/09/30 10:03:10;;;;;;;15.45;11.40;;;;;;;20.35;78.84;99180.57;1709174;82;21035;-79
2022/09/30 10:05:40;;;;;;;19.23;12.58;;;;;;;20.47;78.79;99174.72;1709985;83;21074;-79
2022/09/30 10:08:20;;;;;;;21.95;12.20;;;;;;;20.61;78.02;99181.14;1709820;82;21695;-79
2022/09/30 10:10:54;;;;;;;17.40;11.55;;;;;;;20.65;77.09;99183.10;1709984;83;21106;-80
2022/09/30 10:13:26;;;;;;;;;;;;;;;20.62;76.63;99181.48;1712938;83;21079;-80
2022/09/30 10:15:54;;;;;;;17.87;13.75;;;;;;;20.67;76.64;99182.48;1710038;83;20557;-79
2022/09/30 10:18:30;;;;;;;17.17;12.37;;;;;;;20.71;76.34;99183.45;1710063;83;21121;-78
2022/09/30 10:21:04;;;;;;;19.95;12.70;;;;;;;20.77;76.24;99180.25;1690224;83;21507;-79
2022/09/30 10:23:37;;;;;;;18.35;12.60;;;;;;;20.73;75.12;99186.00;1710459;83;21082;-79
2022/09/30 10:26:15;;;;;;;19.42;12.45;;;;;;;20.72;76.34;99186.47;1709774;83;21136;-81
2022/09/30 10:28:49;;;;;;;18.35;12.37;;;;;;;20.80;76.38;99183.17;1710558;83;21154;-80
2022/09/30 10:31:40;;;;;;;23.65;12.50;;;;;;;20.94;76.79;99190.05;1709768;83;21070;-79
2022/09/30 10:34:21;;;;;;;21.37;13.32;;;;;;;21.08;76.29;99192.44;1709902;83;21082;-79
2022/09/30 10:36:48;;;;;;;17.92;11.48;;;;;;;21.20;76.02;99191.02;1710254;83;21060;-80
2022/09/30 10:39:34;;;;;;;25.68;11.57;;;;;;;21.30;75.77;99194.62;1710384;83;21090;-80
2022/09/30 10:42:06;;;;;;;17.50;12.30;;;;;;;21.40;75.51;99198.24;1710146;83;21004;-78
2022/09/30 10:44:32;;;;;;;19.32;11.70;;;;;;;21.50;74.52;99191.63;1710478;83;21026;-79
2022/09/30 10:47:01;;;;;;;15.78;11.20;;;;;;;21.48;73.31;99186.40;1709853;83;20983;-79
2022/09/30 10:49:34;;;;;;;16.60;12.93;;;;;;;21.40;72.54;99194.23;1710074;83;21475;-79
2022/09/30 10:52:01;;;;;;;16.67;11.73;;;;;;;21.27;73.23;99198.91;1709968;83;21256;-82
2022/09/30 10:54:55;;;;;;;19.37;11.08;;;;;;;21.22;74.23;99195.28;1709934;83;21090;-80
2022/09/30 10:57:32;;;;;;;16.05;10.50;;;;;;;21.27;74.26;99201.59;1709915;83;21027;-78
2022/09/30 11:00:04;;;;;;;16.73;10.43;;;;;;;21.27;73.61;99197.58;1709530;83;21162;-75
2022/09/30 11:02:47;;;;;;;12.30;9.33;;;;;;;21.29;73.10;99196.95;1709953;83;21085;-78
2022/09/30 11:05:23;;;;;;;12.20;9.50;;;;;;;21.30;72.83;99195.48;1710240;83;21090;-80
2022/09/30 11:08:02;;;;;;;15.72;10.68;;;;;;;21.29;72.07;99200.47;1709922;83;20995;-79
2022/09/30 11:10:39;;;;;;;14.83;10.48;;;;;;;21.24;72.78;99197.83;1709966;82;21676;-80
2022/09/30 11:13:28;;;;;;;17.45;10.65;;;;;;;21.21;72.19;99200.76;1709931;83;21008;-79
2022/09/30 11:16:22;;;;;;;14.40;9.83;;;;;;;21.17;72.99;99210.03;1710422;83;21150;-80
2022/09/30 11:19:04;;;;;;;11.95;9.78;;;;;;;21.21;73.20;99209.63;1709860;83;21815;-77
2022/09/30 11:21:52;;;;;;;15.90;9.80;;;;;;;21.30;72.48;99210.67;1709686;83;21074;-81
2022/09/30 11:24:42;;;;;;;11.48;7.95;;;;;;;21.30;72.58;99209.33;1710146;82;21084;-78
2022/09/30 11:27:29;;;;;;;10.85;7.55;;;;;;;21.36;71.90;99212.84;1709965;83;21011;-78
2022/09/30 11:30:22;;;;;;;12.33;7.60;;;;;;;21.47;71.22;99213.33;1709930;83;21003;-80
2022/09/30 11:33:32;;;;;;;15.18;7.80;;;;;;;21.58;70.17;99222.61;1710303;83;21212;-81
2022/09/30 11:36:33;;;;;;;12.53;7.78;;;;;;;21.69;69.69;99217.69;1710413;83;21129;-81
2022/09/30 11:39:15;;;;;;;9.68;7.37;;;;;;;21.82;70.38;99227.70;1709158;83;21495;-75
2022/09/30 11:41:53;;;;;;;15.05;7.67;;;;;;;21.94;69.89;99233.84;1709812;83;21600;-80
2022/09/30 11:44:25;;;;;;;10.60;6.85;;;;;;;21.96;68.28;99227.01;1710128;83;21043;-78
2022/09/30 11:47:00;;;;;;;10.95;7.00;;;;;;;22.01;68.73;99228.80;1705760;83;21232;-81
2022/09/30 11:50:12;;;;;;;9.98;7.03;;;;;;;22.16;68.71;99235.48;1709863;83;21503;-79
2022/09/30 11:52:53;;;;;;;16.48;7.80;;;;;;;22.34;68.14;99230.39;1709809;83;22101;-78
2022/09/30 11:56:03;;;;;;;10.78;7.67;;;;;;;22.55;67.22;99231.64;1709683;83;21675;-81
2022/09/30 11:58:37;;;;;;;12.40;7.58;;;;;;;22.74;67.41;99229.99;1709782;83;21055;-80